createdAt,value
2022-11-08T00:01:47.368Z,20.88
2022-11-08T00:08:10.460Z,20.82
2022-11-08T00:14:34.836Z,20.76
2022-11-08T00:20:59.138Z,20.70
2022-11-08T00:27:23.487Z,20.63
2022-11-08T00:33:47.703Z,20.58
2022-11-08T00:40:12.085Z,20.52
2022-11-08T00:46:36.490Z,20.48
2022-11-08T00:53:00.800Z,20.41
2022-11-08T00:59:25.216Z,20.36
2022-11-08T01:05:49.564Z,20.30
2022-11-08T01:12:13.942Z,20.25
2022-11-08T01:18:38.398Z,20.20
2022-11-08T01:25:02.754Z,20.14
2022-11-08T01:31:27.214Z,20.09
2022-11-08T01:37:51.488Z,20.05
2022-11-08T01:44:21.684Z,20.00
2022-11-08T01:50:48.536Z,19.95
2022-11-08T01:56:52.649Z,19.91
2022-11-08T02:03:16.941Z,19.87
2022-11-08T02:09:41.270Z,19.82
2022-11-08T02:16:05.677Z,19.78
2022-11-08T02:22:45.279Z,19.74
2022-11-08T02:29:09.547Z,19.71
2022-11-08T02:35:34.031Z,19.66
2022-11-08T02:41:58.410Z,19.62
2022-11-08T02:48:22.845Z,19.59
2022-11-08T02:54:47.234Z,19.55
2022-11-08T03:01:11.811Z,19.51
2022-11-08T03:07:36.142Z,19.48
2022-11-08T03:14:00.469Z,19.44
2022-11-08T03:20:29.597Z,19.41
2022-11-08T03:26:56.967Z,19.37
2022-11-08T03:33:21.243Z,19.33
2022-11-08T03:39:38.162Z,19.30
2022-11-08T03:46:02.530Z,19.26
2022-11-08T03:52:26.865Z,19.23
2022-11-08T03:58:51.051Z,19.20
2022-11-08T04:05:15.538Z,19.17
2022-11-08T04:11:38.396Z,19.14
2022-11-08T04:18:01.257Z,19.11
2022-11-08T04:24:25.609Z,19.07
2022-11-08T04:30:50.138Z,19.03
2022-11-08T04:37:14.430Z,19.00
2022-11-08T04:43:38.842Z,18.96
2022-11-08T04:50:03.207Z,18.93
2022-11-08T04:56:27.600Z,18.90
2022-11-08T05:02:51.175Z,18.87
2022-11-08T05:09:15.578Z,18.84
2022-11-08T05:15:39.820Z,18.82
2022-11-08T05:22:02.775Z,18.79
2022-11-08T05:28:27.308Z,18.76
2022-11-08T05:34:51.598Z,18.74
2022-11-08T05:41:15.957Z,18.73
2022-11-08T05:47:40.455Z,18.75
2022-11-08T05:54:04.770Z,18.84
2022-11-08T06:00:12.016Z,19.03
2022-11-08T06:06:16.008Z,19.22
2022-11-08T06:12:40.315Z,19.44
2022-11-08T06:18:47.922Z,19.62
2022-11-08T06:24:51.869Z,19.80
2022-11-08T06:31:16.356Z,19.95
2022-11-08T06:37:40.779Z,20.09
2022-11-08T06:44:05.212Z,20.24
2022-11-08T06:50:29.512Z,20.39
2022-11-08T06:56:53.813Z,20.50
2022-11-08T07:03:18.379Z,20.60
2022-11-08T07:09:35.626Z,20.71
2022-11-08T07:15:59.995Z,20.79
2022-11-08T07:22:22.895Z,20.90
2022-11-08T07:28:47.287Z,20.98
2022-11-08T07:35:11.695Z,21.00
2022-11-08T07:41:36.346Z,20.97
2022-11-08T07:48:00.724Z,20.92
2022-11-08T07:54:25.025Z,20.86
2022-11-08T08:00:49.466Z,20.79
2022-11-08T08:07:13.843Z,20.74
2022-11-08T08:13:38.121Z,20.71
2022-11-08T08:20:02.701Z,20.70
2022-11-08T08:26:27.412Z,20.67
2022-11-08T08:33:08.452Z,20.63
2022-11-08T08:39:36.128Z,20.59
2022-11-08T08:46:00.533Z,20.55
2022-11-08T08:52:24.963Z,20.50
2022-11-08T09:05:33.645Z,20.43
2022-11-08T09:11:58.037Z,20.39
2022-11-08T09:18:22.586Z,20.35
2022-11-08T09:24:47.190Z,20.30
2022-11-08T09:31:11.669Z,20.28
2022-11-08T09:37:36.094Z,20.24
2022-11-08T09:44:12.196Z,20.22
2022-11-08T09:50:45.106Z,20.19
2022-11-08T09:57:09.406Z,20.14
2022-11-08T10:03:33.709Z,20.11
2022-11-08T10:09:58.042Z,20.07
2022-11-08T10:16:22.448Z,20.04
2022-11-08T10:22:58.656Z,19.99
2022-11-08T10:29:23.049Z,19.95
2022-11-08T10:36:05.895Z,19.92
2022-11-08T10:42:34.717Z,19.89
2022-11-08T10:48:59.136Z,19.86
2022-11-08T10:55:28.155Z,19.83
2022-11-08T11:01:52.670Z,19.81
2022-11-08T11:08:17.353Z,19.78
2022-11-08T11:14:57.186Z,19.76
2022-11-08T11:21:22.191Z,19.72
2022-11-08T11:27:47.306Z,19.70
2022-11-08T11:34:14.673Z,19.66
2022-11-08T11:40:44.963Z,19.63
2022-11-08T11:47:24.445Z,19.61
2022-11-08T11:53:57.465Z,19.61
2022-11-08T12:00:21.816Z,19.65
2022-11-08T12:07:04.968Z,19.80
2022-11-08T12:13:35.954Z,20.10
2022-11-08T12:19:58.832Z,20.50
2022-11-08T12:26:35.434Z,20.89
2022-11-08T12:33:18.181Z,21.25
2022-11-08T12:40:03.863Z,21.56
2022-11-08T12:46:28.528Z,21.84
2022-11-08T12:52:57.737Z,22.03
2022-11-08T12:59:37.571Z,22.14
2022-11-08T13:06:04.786Z,22.18
2022-11-08T13:12:41.090Z,22.19
2022-11-08T13:19:14.719Z,22.19
2022-11-08T13:25:39.124Z,22.19
2022-11-08T13:32:03.532Z,22.16
2022-11-08T13:38:33.736Z,22.11
2022-11-08T13:44:56.222Z,22.09
2022-11-08T13:51:29.905Z,22.09
2022-11-08T13:57:57.505Z,22.07
2022-11-08T14:04:29.748Z,22.04
2022-11-08T14:11:06.179Z,21.93
2022-11-08T14:17:33.351Z,21.80
2022-11-08T14:24:00.650Z,21.65
2022-11-08T14:30:25.007Z,21.48
2022-11-08T14:36:56.294Z,21.37
2022-11-08T14:43:21.078Z,21.25
2022-11-08T14:49:54.615Z,21.14
2022-11-08T14:56:19.181Z,21.04
2022-11-08T15:02:43.460Z,20.94
2022-11-08T15:09:10.371Z,20.86
2022-11-08T15:15:34.752Z,20.77
2022-11-08T15:22:01.951Z,20.70
2022-11-08T15:28:26.239Z,20.61
2022-11-08T15:34:59.609Z,20.55
2022-11-08T15:41:29.555Z,20.48
2022-11-08T15:47:51.993Z,20.43
2022-11-08T15:54:16.279Z,20.38
2022-11-08T16:00:40.319Z,20.32
2022-11-08T16:07:04.734Z,20.26
2022-11-08T16:13:29.236Z,20.21
2022-11-08T16:19:56.328Z,20.16
2022-11-08T16:26:20.603Z,20.16
2022-11-08T16:32:45.026Z,20.22
2022-11-08T16:39:09.328Z,20.35
2022-11-08T16:46:03.081Z,20.47
2022-11-08T16:52:18.038Z,20.63
2022-11-08T16:58:42.326Z,20.82
2022-11-08T17:05:06.643Z,20.97
2022-11-08T17:11:31.072Z,21.08
2022-11-08T17:17:55.361Z,21.14
2022-11-08T17:24:21.936Z,21.14
2022-11-08T17:30:46.960Z,21.11
2022-11-08T17:37:11.379Z,21.06
2022-11-08T17:43:35.811Z,21.02
2022-11-08T17:50:00.242Z,20.95
2022-11-08T17:56:24.378Z,20.92
2022-11-08T18:02:48.812Z,20.88
2022-11-08T18:09:13.343Z,20.83
2022-11-08T18:15:37.633Z,20.78
2022-11-08T18:22:02.007Z,20.74
2022-11-08T18:28:26.375Z,20.71
2022-11-08T18:34:50.788Z,20.69
2022-11-08T18:41:15.108Z,20.66
2022-11-08T18:47:39.392Z,20.62
2022-11-08T18:54:03.691Z,20.60
2022-11-08T19:00:28.224Z,20.59
2022-11-08T19:06:54.826Z,20.56
2022-11-08T19:13:08.733Z,20.53
2022-11-08T19:19:33.085Z,20.50
2022-11-08T19:25:56.444Z,20.47
2022-11-08T19:32:21.112Z,20.43
2022-11-08T19:38:45.626Z,20.39
2022-11-08T19:45:10.007Z,20.35
2022-11-08T19:51:34.341Z,20.31
2022-11-08T19:57:58.614Z,20.30
2022-11-08T20:04:02.853Z,20.36
2022-11-08T20:10:27.118Z,20.45
2022-11-08T20:16:54.110Z,20.55
2022-11-08T20:23:18.660Z,20.63
2022-11-08T20:29:32.147Z,20.72
2022-11-08T20:35:56.555Z,20.84
2022-11-08T20:42:20.832Z,20.96
2022-11-08T20:48:45.157Z,21.09
2022-11-08T20:55:09.474Z,21.17
2022-11-08T21:01:36.587Z,21.32
2022-11-08T21:08:05.573Z,21.44
2022-11-08T21:14:37.996Z,21.50
2022-11-08T21:21:02.496Z,21.51
2022-11-08T21:27:29.704Z,21.57
2022-11-08T21:33:54.157Z,21.67
2022-11-08T21:40:18.489Z,21.72
2022-11-08T21:46:38.927Z,21.73
2022-11-08T21:53:03.313Z,21.67
2022-11-08T21:59:27.619Z,21.59
2022-11-08T22:05:52.045Z,21.53
2022-11-08T22:12:16.990Z,21.46
2022-11-08T22:25:25.572Z,21.32
2022-11-08T22:31:52.737Z,21.25
2022-11-08T22:38:17.385Z,21.19
2022-11-08T22:44:41.900Z,21.13
2022-11-08T22:51:06.432Z,21.06
2022-11-08T22:57:30.799Z,21.00
2022-11-08T23:03:55.223Z,20.94
2022-11-08T23:10:19.647Z,20.88
2022-11-08T23:16:53.433Z,20.82
2022-11-08T23:23:16.597Z,20.77
2022-11-08T23:29:40.021Z,20.71
2022-11-08T23:36:04.393Z,20.64
2022-11-08T23:42:27.258Z,20.59
2022-11-08T23:48:51.664Z,20.53
2022-11-08T23:55:16.025Z,20.48
